Time;durP1;ratioP1;P1;durP2;ratioP2;P2;SDS_P1;SDS_P2;PMS_P1;PMS_P2;Temp;Humidity;BMP_temperature;BMP_pressure;BME280_temperature;BME280_humidity;BME280_pressure;Samples;Min_cycle;Max_cycle;Signal;HPM_P1;HPM_P2
2022/11/25 00:01:12;;;;;;;10.18;4.13;;;;;;;2.33;100.00;97198.34;5046644;28;20199;-60
2022/11/25 00:03:40;;;;;;;12.50;3.90;;;;;;;2.26;100.00;97192.19;5046380;28;20575;-59
2022/11/25 00:06:08;;;;;;;9.43;4.32;;;;;;;2.20;100.00;97191.16;5047420;28;20376;-60
2022/11/25 00:08:35;;;;;;;12.93;4.13;;;;;;;2.07;100.00;97191.94;5045909;28;20289;-60
2022/11/25 00:11:03;;;;;;;11.77;4.18;;;;;;;2.18;100.00;97193.19;5042789;28;20049;-60
2022/11/25 00:13:30;;;;;;;9.20;3.30;;;;;;;2.28;100.00;97200.00;5046071;28;20056;-60
2022/11/25 00:16:04;;;;;;;9.07;4.30;;;;;;;2.41;100.00;97192.00;5040234;28;20465;-60
2022/11/25 00:18:31;;;;;;;9.68;3.50;;;;;;;2.49;100.00;97192.81;5041726;28;20045;-61
2022/11/25 00:21:03;;;;;;;9.90;4.10;;;;;;;2.49;100.00;97190.97;5046393;28;20040;-60
2022/11/25 00:23:29;;;;;;;8.50;3.60;;;;;;;2.22;100.00;97198.97;5033072;28;19933;-60
2022/11/25 00:26:13;;;;;;;9.45;3.55;;;;;;;2.10;100.00;97192.56;5025899;28;20481;-61
2022/11/25 00:28:42;;;;;;;11.90;4.22;;;;;;;1.94;100.00;97189.22;5041757;28;20049;-60
2022/11/25 00:31:09;;;;;;;7.75;3.92;;;;;;;1.83;100.00;97193.28;5045978;28;20241;-59
2022/11/25 00:33:37;;;;;;;6.25;3.75;;;;;;;1.75;100.00;97194.31;5046473;28;20123;-60
2022/11/25 00:36:05;;;;;;;17.25;4.57;;;;;;;1.74;100.00;97194.50;5046227;28;20224;-60
2022/11/25 00:38:32;;;;;;;11.63;3.87;;;;;;;1.95;100.00;97198.88;5042517;28;20045;-60
2022/11/25 00:46:29;;;;;;;10.27;4.97;;;;;;;2.26;100.00;97199.38;5025931;28;20129;-60
2022/11/25 00:48:55;;;;;;;12.90;5.45;;;;;;;2.36;100.00;97191.78;5038611;28;20073;-60
2022/11/25 00:51:21;;;;;;;17.05;5.30;;;;;;;2.42;100.00;97190.97;5025734;28;20116;-58
2022/11/25 00:53:48;;;;;;;11.70;5.30;;;;;;;2.42;100.00;97193.66;5040573;28;20483;-60
2022/11/25 00:56:18;;;;;;;24.38;8.27;;;;;;;2.40;100.00;97186.88;5045525;28;20417;-57
2022/11/25 00:58:45;;;;;;;13.15;5.35;;;;;;;2.47;100.00;97190.38;5042847;28;20048;-57
2022/11/25 01:01:11;;;;;;;11.55;4.70;;;;;;;2.42;100.00;97190.97;5025900;28;20239;-61
2022/11/25 01:03:40;;;;;;;10.27;4.75;;;;;;;2.34;100.00;97186.66;5040485;28;20048;-58
2022/11/25 01:06:09;;;;;;;16.85;6.00;;;;;;;2.42;100.00;97184.78;5044549;28;20099;-61
2022/11/25 01:08:37;;;;;;;12.70;5.53;;;;;;;2.38;100.00;97183.56;5046179;28;20045;-59
2022/11/25 01:11:10;;;;;;;10.18;5.78;;;;;;;2.33;100.00;97184.19;5065241;28;20045;-57
2022/11/25 01:13:38;;;;;;;16.17;5.43;;;;;;;2.30;100.00;97193.44;5038502;28;20397;-59
2022/11/25 01:16:07;;;;;;;12.10;5.57;;;;;;;2.38;100.00;97196.91;5026001;28;20048;-58
2022/11/25 01:18:33;;;;;;;14.15;5.00;;;;;;;2.46;100.00;97200.22;5039361;28;20048;-60
2022/11/25 01:21:16;;;;;;;12.32;4.97;;;;;;;2.61;100.00;97196.53;5023410;28;20095;-59
2022/11/25 01:23:44;;;;;;;11.35;4.45;;;;;;;2.67;100.00;97195.72;5039540;28;20076;-58
2022/11/25 01:26:14;;;;;;;12.30;4.80;;;;;;;2.69;100.00;97190.97;5045598;28;20464;-60
2022/11/25 01:28:43;;;;;;;8.80;4.13;;;;;;;2.76;100.00;97204.34;5043631;28;19920;-60
2022/11/25 01:31:14;;;;;;;12.65;4.90;;;;;;;2.87;100.00;97197.56;5044068;28;20037;-60
2022/11/25 01:33:41;;;;;;;9.20;4.03;;;;;;;2.93;100.00;97195.91;5044749;28;20045;-59
2022/11/25 01:36:17;;;;;;;11.15;4.22;;;;;;;2.96;100.00;97195.50;5044187;28;20148;-60
2022/11/25 01:38:48;;;;;;;11.95;4.00;;;;;;;2.93;100.00;97203.94;5045015;28;20045;-60
2022/11/25 01:41:14;;;;;;;7.80;4.40;;;;;;;2.88;100.00;97209.91;5045619;28;20065;-58
2022/11/25 01:43:41;;;;;;;10.90;4.95;;;;;;;2.78;100.00;97206.81;5043843;28;19936;-60
2022/11/25 01:46:24;;;;;;;12.30;4.50;;;;;;;2.72;100.00;97217.31;5044465;28;20124;-59
2022/11/25 01:48:57;;;;;;;17.38;5.50;;;;;;;2.68;100.00;97209.91;5041323;28;19921;-60
2022/11/25 01:51:38;;;;;;;15.65;5.45;;;;;;;2.64;100.00;97203.31;5044671;28;20045;-59
2022/11/25 01:54:10;;;;;;;11.87;4.50;;;;;;;2.68;100.00;97202.72;5041173;28;20343;-59
2022/11/25 01:56:45;;;;;;;7.57;3.78;;;;;;;2.77;100.00;97199.84;5045088;28;20276;-60
2022/11/25 01:59:13;;;;;;;10.90;4.32;;;;;;;2.78;100.00;97198.78;5043838;28;20156;-60
2022/11/25 02:01:39;;;;;;;11.15;4.85;;;;;;;2.73;100.00;97210.94;5045484;28;20148;-60
2022/11/25 02:04:09;;;;;;;11.57;4.47;;;;;;;2.73;100.00;97212.81;5040481;28;20337;-60
2022/11/25 02:06:46;;;;;;;13.38;4.50;;;;;;;2.68;100.00;97216.06;5048463;28;20056;-60
2022/11/25 02:09:13;;;;;;;8.45;4.10;;;;;;;2.62;100.00;97211.56;5055481;28;20036;-58
2022/11/25 02:11:42;;;;;;;11.43;4.63;;;;;;;2.57;100.00;97208.66;5067570;28;20055;-58
2022/11/25 02:14:12;;;;;;;9.93;4.10;;;;;;;2.52;100.00;97211.13;5046668;28;20049;-58
2022/11/25 02:16:39;;;;;;;9.25;4.72;;;;;;;2.51;100.00;97199.59;5028653;28;20136;-59
2022/11/25 02:19:19;;;;;;;16.10;4.75;;;;;;;2.49;100.00;97200.84;5041378;28;20041;-58
2022/11/25 02:21:53;;;;;;;8.77;4.10;;;;;;;2.51;100.00;97202.28;5026161;28;20045;-59
2022/11/25 02:24:24;;;;;;;9.95;4.95;;;;;;;2.56;100.00;97207.00;5042001;28;20140;-59
2022/11/25 02:26:51;;;;;;;9.95;4.63;;;;;;;2.52;100.00;97205.78;5037456;28;20065;-58
2022/11/25 02:29:17;;;;;;;9.25;4.38;;;;;;;2.44;100.00;97204.94;5035849;28;20232;-58
2022/11/25 02:31:47;;;;;;;12.68;3.88;;;;;;;2.39;100.00;97202.06;5036985;28;20068;-59
2022/11/25 02:34:13;;;;;;;9.73;3.90;;;;;;;2.37;100.00;97208.63;5046115;28;20047;-60
2022/11/25 02:36:40;;;;;;;10.52;4.38;;;;;;;2.39;100.00;97204.72;5031009;28;20061;-60
2022/11/25 02:39:07;;;;;;;8.90;4.10;;;;;;;2.39;100.00;97203.94;5043283;28;20045;-60
2022/11/25 02:41:39;;;;;;;13.15;4.93;;;;;;;2.39;100.00;97198.59;5048113;28;20140;-60
2022/11/25 02:44:06;;;;;;;10.57;4.80;;;;;;;2.39;100.00;97194.03;5038165;28;20596;-58
2022/11/25 02:46:33;;;;;;;10.77;4.70;;;;;;;2.38;100.00;97189.72;5037638;28;20564;-60
2022/11/25 02:49:01;;;;;;;11.82;4.28;;;;;;;2.42;100.00;97187.47;5040080;28;20048;-62
2022/11/25 02:51:39;;;;;;;11.73;4.40;;;;;;;2.39;100.00;97190.56;5036605;28;20051;-61
2022/11/25 02:54:07;;;;;;;8.30;4.17;;;;;;;2.44;100.00;97188.09;5046511;28;20127;-60
2022/11/25 02:56:35;;;;;;;8.77;3.88;;;;;;;2.51;100.00;97186.22;5046364;28;20455;-60
2022/11/25 02:59:02;;;;;;;7.13;3.67;;;;;;;2.58;100.00;97186.25;5041953;28;20051;-61
2022/11/25 03:01:33;;;;;;;8.15;3.38;;;;;;;2.70;100.00;97171.22;5040520;28;20045;-60
2022/11/25 03:04:03;;;;;;;11.52;3.75;;;;;;;2.77;100.00;97171.25;5045866;28;20033;-60
2022/11/25 03:06:30;;;;;;;11.68;3.90;;;;;;;2.61;100.00;97177.81;5046643;28;20061;-61
2022/11/25 03:08:57;;;;;;;11.35;3.78;;;;;;;2.69;100.00;97169.59;5054169;28;20036;-60
2022/11/25 03:12:17;;;;;;;9.35;3.05;;;;;;;2.81;100.00;97168.97;5053601;28;20088;-61
2022/11/25 03:14:13;;;;;;;7.55;3.53;;;;;;;2.91;100.00;97172.03;5034343;28;20140;-60
2022/11/25 03:16:41;;;;;;;9.30;3.80;;;;;;;2.72;100.00;97169.19;5046648;28;20102;-61
2022/11/25 03:19:07;;;;;;;10.05;3.97;;;;;;;2.71;100.00;97170.22;5041088;28;20053;-61
2022/11/25 03:21:34;;;;;;;8.00;3.47;;;;;;;2.77;100.00;97163.22;5039641;28;20033;-59
2022/11/25 03:24:00;;;;;;;10.20;3.47;;;;;;;2.64;100.00;97169.41;5041723;28;20076;-60
2022/11/25 03:26:27;;;;;;;8.30;3.38;;;;;;;2.65;100.00;97157.66;5046320;28;20077;-60
2022/11/25 03:28:53;;;;;;;7.07;3.10;;;;;;;2.75;100.00;97159.09;5047130;28;20045;-60
2022/11/25 03:31:20;;;;;;;10.13;3.57;;;;;;;2.80;100.00;97159.31;5046813;28;20040;-60
2022/11/25 03:33:47;;;;;;;7.38;2.95;;;;;;;2.76;100.00;97158.09;5045644;28;20264;-60
2022/11/25 03:36:13;;;;;;;10.40;3.53;;;;;;;2.59;100.00;97147.81;5046435;28;20049;-57
2022/11/25 03:38:40;;;;;;;9.93;3.65;;;;;;;2.57;100.00;97156.03;5045151;28;20540;-60
2022/11/25 03:41:07;;;;;;;11.88;3.30;;;;;;;2.57;100.00;97153.34;5035127;28;20552;-60
2022/11/25 03:43:34;;;;;;;5.82;2.70;;;;;;;2.50;100.00;97157.06;5029420;28;20033;-59
2022/11/25 03:46:01;;;;;;;9.93;3.25;;;;;;;2.49;100.00;97158.91;5039447;28;20327;-60
2022/11/25 03:48:28;;;;;;;7.40;3.35;;;;;;;2.76;100.00;97155.41;5028097;28;20124;-61
2022/11/25 03:50:54;;;;;;;6.70;3.10;;;;;;;2.79;100.00;97147.78;5046284;28;20041;-60
2022/11/25 03:53:23;;;;;;;8.68;3.60;;;;;;;2.76;100.00;97152.75;5046288;28;20456;-58
2022/11/25 03:55:49;;;;;;;9.60;3.55;;;;;;;2.68;100.00;97145.72;5045384;28;20084;-60
2022/11/25 03:58:19;;;;;;;11.85;3.72;;;;;;;2.76;100.00;97155.41;5045538;28;20047;-60
2022/11/25 04:00:47;;;;;;;11.30;3.60;;;;;;;2.77;100.00;97155.22;5044929;28;20037;-59
2022/11/25 04:03:13;;;;;;;7.10;3.28;;;;;;;2.85;100.00;97149.63;5045632;28;20587;-60
2022/11/25 04:05:40;;;;;;;8.15;3.72;;;;;;;2.93;100.00;97153.94;5027271;28;20423;-58
2022/11/25 04:08:07;;;;;;;6.90;3.15;;;;;;;3.03;100.00;97150.03;5025759;28;20046;-59
2022/11/25 04:10:35;;;;;;;5.90;2.92;;;;;;;3.01;100.00;97147.56;5044831;28;20044;-61
2022/11/25 04:13:03;;;;;;;7.28;3.50;;;;;;;3.05;100.00;97150.63;5045110;28;20047;-61
2022/11/25 04:15:34;;;;;;;8.43;3.65;;;;;;;2.91;100.00;97147.97;5044792;28;20041;-60
2022/11/25 04:18:01;;;;;;;8.32;3.15;;;;;;;2.84;100.00;97145.31;5045581;28;20500;-60
2022/11/25 04:20:30;;;;;;;7.82;2.92;;;;;;;2.83;100.00;97149.03;5040368;28;20288;-61
2022/11/25 04:23:01;;;;;;;10.27;4.20;;;;;;;2.84;100.00;97155.19;5045648;28;20041;-60
2022/11/25 04:25:28;;;;;;;6.53;3.70;;;;;;;2.82;100.00;97146.56;5045478;28;20045;-59
2022/11/25 04:27:54;;;;;;;8.02;3.22;;;;;;;2.92;100.00;97146.97;5044142;28;20045;-59
2022/11/25 04:30:27;;;;;;;7.15;3.35;;;;;;;3.00;100.00;97151.25;5044564;28;20049;-60
2022/11/25 04:32:54;;;;;;;8.65;3.63;;;;;;;2.91;100.00;97139.16;5046612;28;20037;-61
2022/11/25 04:35:21;;;;;;;6.72;3.50;;;;;;;2.86;100.00;97137.91;5032258;28;20045;-61
2022/11/25 04:37:51;;;;;;;7.95;3.22;;;;;;;2.85;100.00;97144.28;5024629;28;20037;-60
2022/11/25 04:40:18;;;;;;;7.72;3.67;;;;;;;2.74;100.00;97139.56;5026709;28;20076;-60
2022/11/25 04:42:51;;;;;;;7.28;3.38;;;;;;;2.62;100.00;97135.88;5015196;28;20045;-61
2022/11/25 04:45:27;;;;;;;8.13;3.05;;;;;;;2.57;100.00;97136.47;5040157;28;20041;-58
2022/11/25 04:48:10;;;;;;;8.88;3.25;;;;;;;2.52;100.00;97139.78;5045196;28;20459;-60
2022/11/25 04:50:37;;;;;;;6.78;3.55;;;;;;;2.58;100.00;97132.81;5043330;28;20033;-60
2022/11/25 04:53:09;;;;;;;6.45;3.50;;;;;;;2.64;100.00;97140.00;5045133;28;20045;-59
2022/11/25 04:55:37;;;;;;;10.50;3.47;;;;;;;2.67;100.00;97139.59;5034973;28;20029;-60
2022/11/25 04:58:10;;;;;;;9.05;3.70;;;;;;;2.69;100.00;97142.06;5024613;28;20483;-61
2022/11/25 05:00:38;;;;;;;6.32;3.40;;;;;;;2.66;100.00;97134.44;5058391;28;20098;-58
2022/11/25 05:03:06;;;;;;;7.80;3.17;;;;;;;2.53;100.00;97137.91;5063969;28;20110;-60
2022/11/25 05:05:37;;;;;;;9.55;3.45;;;;;;;2.37;100.00;97140.00;5047125;28;20048;-60
2022/11/25 05:08:03;;;;;;;7.95;3.50;;;;;;;2.30;100.00;97140.00;5045659;28;20045;-60
2022/11/25 05:10:31;;;;;;;7.93;3.17;;;;;;;2.25;100.00;97145.09;5045937;28;20065;-57
2022/11/25 05:12:57;;;;;;;8.07;3.67;;;;;;;2.16;100.00;97138.31;5044440;28;20041;-60
2022/11/25 05:15:24;;;;;;;7.28;3.30;;;;;;;2.09;100.00;97135.63;5054138;28;20045;-60
2022/11/25 05:17:52;;;;;;;8.43;3.63;;;;;;;2.08;100.00;97134.00;5064865;28;20074;-60
2022/11/25 05:20:31;;;;;;;7.03;3.20;;;;;;;1.89;100.00;97140.94;5045211;28;20128;-59
2022/11/25 05:22:58;;;;;;;14.68;3.30;;;;;;;1.87;100.00;97146.50;5045255;28;20269;-59
2022/11/25 05:25:25;;;;;;;7.10;3.88;;;;;;;1.88;100.00;97152.66;5042382;28;20106;-58
2022/11/25 05:28:18;;;;;;;6.65;3.53;;;;;;;1.80;100.00;97156.31;5024621;28;20439;-58
2022/11/25 05:30:44;;;;;;;8.20;3.58;;;;;;;1.81;100.00;97157.97;5041098;28;20048;-61
2022/11/25 05:33:11;;;;;;;8.85;4.07;;;;;;;1.89;100.00;97163.16;5043853;28;20135;-58
2022/11/25 05:35:38;;;;;;;9.88;4.18;;;;;;;1.97;100.00;97162.13;5043831;28;20071;-60
2022/11/25 05:38:05;;;;;;;8.43;4.07;;;;;;;2.06;100.00;97166.25;5044237;28;20103;-60
2022/11/25 05:40:32;;;;;;;8.60;4.03;;;;;;;1.99;100.00;97161.94;5044107;28;20049;-60
2022/11/25 05:43:03;;;;;;;8.90;3.75;;;;;;;2.10;100.00;97166.66;5042021;28;20103;-59
2022/11/25 05:45:33;;;;;;;14.20;4.60;;;;;;;2.17;100.00;97174.69;5037509;28;20033;-58
2022/11/25 05:47:59;;;;;;;9.20;4.18;;;;;;;2.07;100.00;97191.13;5029784;28;20045;-60
2022/11/25 05:50:27;;;;;;;11.38;4.63;;;;;;;2.10;100.00;97185.34;5044718;28;20041;-59
2022/11/25 05:53:10;;;;;;;10.80;5.28;;;;;;;2.16;100.00;97184.56;5040663;28;20332;-59
2022/11/25 05:55:36;;;;;;;8.18;4.00;;;;;;;2.29;100.00;97186.41;5042050;28;20037;-61
2022/11/25 05:58:09;;;;;;;8.73;3.83;;;;;;;2.50;100.00;97191.81;5028054;28;20051;-61
2022/11/25 06:00:36;;;;;;;9.40;4.03;;;;;;;2.55;100.00;97184.81;5033879;28;20527;-61
2022/11/25 06:03:07;;;;;;;7.95;3.65;;;;;;;2.47;100.00;97191.19;5027962;28;20045;-61
2022/11/25 06:05:35;;;;;;;7.75;3.80;;;;;;;2.51;100.00;97191.59;5044286;28;20045;-61
2022/11/25 06:08:01;;;;;;;6.90;3.20;;;;;;;2.56;100.00;97194.50;5027469;28;20144;-60
2022/11/25 06:10:28;;;;;;;7.10;3.00;;;;;;;2.60;100.00;97193.06;5046588;28;20053;-62
2022/11/25 06:12:55;;;;;;;9.15;3.83;;;;;;;2.56;100.00;97196.31;5047451;28;20119;-61
2022/11/25 06:15:22;;;;;;;11.07;4.03;;;;;;;2.55;100.00;97195.50;5040697;28;20041;-59
2022/11/25 06:17:51;;;;;;;6.97;3.77;;;;;;;2.56;100.00;97202.50;5047712;28;20482;-60
2022/11/25 06:20:22;;;;;;;10.00;4.10;;;;;;;2.36;100.00;97193.63;5052218;28;19974;-60
2022/11/25 06:22:49;;;;;;;8.43;3.80;;;;;;;2.24;100.00;97201.44;5027212;28;20079;-60
2022/11/25 06:25:21;;;;;;;;;;;;;;;2.16;100.00;97200.59;5039069;28;20043;-60
2022/11/25 06:27:49;;;;;;;7.95;4.00;;;;;;;2.15;100.00;97196.28;5030512;28;19928;-59
2022/11/25 06:30:35;;;;;;;6.22;3.30;;;;;;;2.12;100.00;97195.84;5038200;28;20200;-61
2022/11/25 06:33:28;;;;;;;7.15;3.45;;;;;;;2.10;100.00;97200.56;5027607;28;20456;-60
2022/11/25 06:36:00;;;;;;;8.77;4.03;;;;;;;2.12;100.00;97198.50;5041842;28;20037;-61
2022/11/25 06:38:27;;;;;;;8.35;3.88;;;;;;;2.11;100.00;97200.38;5042688;28;20712;-59
2022/11/25 06:40:58;;;;;;;6.95;3.38;;;;;;;2.07;100.00;97218.63;5043405;28;20052;-58
2022/11/25 06:43:25;;;;;;;8.57;3.95;;;;;;;2.06;100.00;97216.16;5048504;28;20059;-60
2022/11/25 06:45:52;;;;;;;10.02;3.80;;;;;;;1.99;100.00;97212.66;5041304;28;20160;-59
2022/11/25 06:48:19;;;;;;;7.38;3.15;;;;;;;2.03;100.00;97220.06;5030343;28;20061;-61
2022/11/25 06:50:54;;;;;;;8.07;3.55;;;;;;;2.11;100.00;97237.78;5041777;28;20033;-61
2022/11/25 06:53:21;;;;;;;5.13;3.40;;;;;;;2.19;100.00;97234.09;5043274;28;20052;-60
2022/11/25 06:56:04;;;;;;;9.20;4.38;;;;;;;2.25;100.00;97233.28;5037966;28;20038;-58
2022/11/25 06:58:31;;;;;;;7.60;3.65;;;;;;;2.24;100.00;97236.97;5034781;28;20427;-59
2022/11/25 07:01:17;;;;;;;8.68;4.22;;;;;;;2.20;100.00;97236.56;5035926;28;20504;-60
2022/11/25 07:03:45;;;;;;;10.98;7.18;;;;;;;2.24;100.00;97230.81;5036298;28;20045;-60
2022/11/25 07:06:13;;;;;;;12.15;4.35;;;;;;;2.27;100.00;97228.56;5030991;28;20068;-61
2022/11/25 07:08:40;;;;;;;10.48;3.80;;;;;;;2.39;100.00;97234.13;5035578;28;20124;-60
2022/11/25 07:11:11;;;;;;;6.45;2.92;;;;;;;2.54;100.00;97233.16;5043773;28;20044;-62
2022/11/25 07:13:38;;;;;;;9.32;3.20;;;;;;;2.72;100.00;97236.03;5049312;28;20075;-60
2022/11/25 07:16:05;;;;;;;6.10;2.70;;;;;;;2.82;100.00;97237.47;5040362;28;20102;-60
2022/11/25 07:18:33;;;;;;;;;;;;;;;2.84;100.00;97243.44;5041924;28;19951;-60
2022/11/25 07:21:06;;;;;;;;;;;;;;;2.73;100.00;97248.38;5037413;28;20055;-59
2022/11/25 07:23:33;;;;;;;;;;;;;;;2.73;100.00;97256.38;5034275;28;20031;-59
2022/11/25 07:26:20;;;;;;;;;;;;;;;2.74;100.00;97249.19;5040325;28;19943;-60
2022/11/25 07:28:48;;;;;;;;;;;;;;;2.79;100.00;97249.41;5031741;28;19925;-60
2022/11/25 07:31:15;;;;;;;;;;;;;;;2.91;100.00;97259.50;5036578;28;20395;-60
2022/11/25 07:33:54;;;;;;;;;;;;;;;2.80;100.00;97255.59;5037484;28;20384;-61
2022/11/25 07:36:21;;;;;;;;;;;;;;;2.81;100.00;97263.41;5037721;28;20403;-61
2022/11/25 07:38:48;;;;;;;;;;;;;;;2.90;100.00;97264.00;5033762;28;19925;-58
2022/11/25 07:41:19;;;;;;;;;;;;;;;2.97;100.00;97277.38;5035561;28;19931;-57
2022/11/25 07:43:47;;;;;;;;;;;;;;;2.99;100.00;97270.78;5037565;28;19921;-58
2022/11/25 07:46:19;;;;;;;;;;;;;;;3.03;100.00;97283.78;5036036;28;20446;-60
2022/11/25 07:48:53;;;;;;;;;;;;;;;3.05;100.00;97287.06;5039117;28;20272;-61
2022/11/25 07:51:22;;;;;;;;;;;;;;;3.07;100.00;97293.03;5033387;28;20181;-59
2022/11/25 07:53:49;;;;;;;;;;;;;;;3.10;100.00;97295.31;5034775;28;20383;-61
2022/11/25 07:56:15;;;;;;;;;;;;;;;3.12;100.00;97301.25;5033982;28;19971;-58
2022/11/25 07:58:42;;;;;;;;;;;;;;;3.19;100.00;97298.59;5039103;28;20368;-59
2022/11/25 08:01:12;;;;;;;;;;;;;;;3.32;100.00;97295.09;5058045;28;19931;-55
2022/11/25 08:03:39;;;;;;;;;;;;;;;3.39;100.00;97301.25;5039968;28;19938;-60
2022/11/25 08:06:07;;;;;;;;;;;;;;;3.37;100.00;97297.97;5035005;28;20399;-57
2022/11/25 08:08:34;;;;;;;;;;;;;;;3.33;100.00;97292.22;5044556;28;20296;-59
2022/11/25 08:11:04;;;;;;;;;;;;;;;3.38;100.00;97279.03;5038603;28;19971;-59
2022/11/25 08:13:31;;;;;;;;;;;;;;;3.45;100.00;97278.19;5046498;28;20446;-57
2022/11/25 08:15:58;;;;;;;;;;;;;;;3.51;100.00;97272.81;5043926;28;20362;-57
2022/11/25 08:18:24;;;;;;;;;;;;;;;3.67;100.00;97272.56;5031718;28;19931;-58
2022/11/25 08:20:51;;;;;;;;;;;;;;;3.69;100.00;97275.88;5042604;28;19951;-58
2022/11/25 08:23:17;;;;;;;;;;;;;;;3.75;100.00;97275.03;5034942;28;20400;-57
2022/11/25 08:25:44;;;;;;;;;;;;;;;3.85;100.00;97278.09;5045054;28;20066;-58
2022/11/25 08:28:15;;;;;;;;;;;;;;;3.84;100.00;97283.66;5032199;28;20312;-55
2022/11/25 08:30:42;;;;;;;;;;;;;;;3.88;100.00;97298.28;5037383;28;19920;-58
2022/11/25 08:33:08;;;;;;;;;;;;;;;3.94;100.00;97288.59;5045433;28;19920;-57
2022/11/25 08:35:36;;;;;;;;;;;;;;;4.09;100.00;97299.03;5031666;28;19967;-57
2022/11/25 08:38:07;;;;;;;;;;;;;;;4.25;100.00;97297.75;5025663;28;19925;-58
2022/11/25 08:40:34;;;;;;;;;;;;;;;4.18;100.00;97299.63;5037617;28;19928;-57
2022/11/25 08:43:02;;;;;;;;;;;;;;;4.15;99.96;97300.88;5036709;28;19939;-59
2022/11/25 08:45:28;;;;;;;;;;;;;;;4.08;100.00;97303.56;5038402;28;19978;-59
2022/11/25 08:47:55;;;;;;;;;;;;;;;4.08;100.00;97300.06;5050459;28;20134;-59
2022/11/25 08:50:23;;;;;;;;;;;;;;;4.08;100.00;97303.56;5035322;28;20269;-58
2022/11/25 08:52:49;;;;;;;;;;;;;;;4.22;100.00;97303.50;5041148;28;19983;-58
2022/11/25 08:55:16;;;;;;;6.50;2.50;;;;;;;4.32;100.00;97303.06;5036211;28;20015;-58
2022/11/25 08:57:43;;;;;;;8.68;3.75;;;;;;;4.30;100.00;97308.63;5038035;28;20615;-57
2022/11/25 09:00:10;;;;;;;5.70;2.13;;;;;;;4.33;100.00;97304.69;5041081;28;20481;-59
2022/11/25 09:02:36;;;;;;;6.10;3.05;;;;;;;4.34;100.00;97314.38;5041167;28;20114;-60
2022/11/25 09:05:03;;;;;;;7.35;2.47;;;;;;;4.43;100.00;97315.81;5030504;28;20091;-58
2022/11/25 09:07:30;;;;;;;7.38;2.05;;;;;;;4.53;100.00;97326.06;5037521;28;20394;-59
2022/11/25 09:09:56;;;;;;;4.85;2.08;;;;;;;4.72;99.70;97328.88;5047222;28;20540;-59
2022/11/25 09:12:23;;;;;;;5.32;1.70;;;;;;;4.74;98.63;97326.78;5039361;28;20040;-59
2022/11/25 09:14:49;;;;;;;4.72;2.17;;;;;;;4.78;98.15;97323.47;5040920;28;20144;-57
2022/11/25 09:17:16;;;;;;;5.38;2.30;;;;;;;4.60;99.61;97324.16;5027318;28;20095;-57
2022/11/25 09:19:42;;;;;;;7.47;2.70;;;;;;;4.75;98.05;97331.94;5042775;28;20044;-59
2022/11/25 09:22:09;;;;;;;6.32;2.55;;;;;;;4.77;98.34;97335.22;5037249;28;20073;-59
2022/11/25 09:24:36;;;;;;;7.25;2.30;;;;;;;4.81;98.58;97338.28;5042811;28;20630;-56
2022/11/25 09:27:02;;;;;;;6.90;2.78;;;;;;;4.56;99.91;97331.00;5034772;28;20099;-59
2022/11/25 09:29:29;;;;;;;7.05;2.90;;;;;;;4.62;100.00;97340.03;5040737;28;20180;-58
2022/11/25 09:31:56;;;;;;;7.53;2.70;;;;;;;4.64;100.00;97338.78;5036533;28;20792;-59
2022/11/25 09:34:23;;;;;;;29.90;13.15;;;;;;;4.68;100.00;97342.69;5028441;28;20052;-59
2022/11/25 09:36:50;;;;;;;10.70;5.70;;;;;;;4.74;100.00;97341.00;5040321;28;20571;-58
2022/11/25 09:39:17;;;;;;;11.95;8.23;;;;;;;4.82;100.00;97331.88;5037768;28;20048;-58
2022/11/25 09:48:26;;;;;;;7.30;3.40;;;;;;;4.99;100.00;97334.88;5036173;28;20073;-60
2022/11/25 09:51:21;;;;;;;8.30;3.22;;;;;;;5.06;100.00;97327.59;5028397;28;20132;-59
2022/11/25 09:53:54;;;;;;;7.03;3.42;;;;;;;5.18;100.00;97335.78;5036766;28;20504;-60
2022/11/25 09:56:41;;;;;;;6.07;3.08;;;;;;;5.29;100.00;97331.56;5040091;28;20041;-58
2022/11/25 09:59:18;;;;;;;7.35;2.72;;;;;;;5.39;100.00;97338.31;5024142;28;20234;-59
2022/11/25 10:01:51;;;;;;;6.28;3.28;;;;;;;5.49;100.00;97338.63;5029756;28;20123;-59
2022/11/25 10:04:30;;;;;;;6.22;3.22;;;;;;;5.64;100.00;97343.66;5032291;28;20046;-60
2022/11/25 10:07:01;;;;;;;9.75;3.60;;;;;;;5.80;100.00;97344.97;5032862;28;20038;-57
2022/11/25 10:09:31;;;;;;;7.53;3.40;;;;;;;5.89;98.75;97348.19;5027799;28;20049;-59
2022/11/25 10:12:16;;;;;;;6.30;2.67;;;;;;;5.99;98.03;97344.97;5039309;28;20100;-58
2022/11/25 10:14:50;;;;;;;6.57;2.75;;;;;;;6.06;98.07;97344.94;5039416;28;20049;-62
2022/11/25 10:17:32;;;;;;;7.85;3.10;;;;;;;6.11;98.45;97342.41;5034488;28;20128;-61
2022/11/25 10:20:21;;;;;;;7.30;3.35;;;;;;;6.15;97.98;97342.78;5039334;28;20044;-59
2022/11/25 10:22:59;;;;;;;5.63;2.55;;;;;;;6.23;98.51;97348.69;5055438;28;20043;-59
2022/11/25 10:25:38;;;;;;;15.43;9.10;;;;;;;6.35;98.08;97340.66;5035656;28;20055;-59
2022/11/25 10:28:20;;;;;;;6.60;2.70;;;;;;;6.38;97.25;97347.50;5053493;28;20053;-57
2022/11/25 10:31:05;;;;;;;5.95;2.22;;;;;;;6.40;97.15;97348.06;5041521;28;20040;-56
2022/11/25 10:33:40;;;;;;;6.25;2.70;;;;;;;6.43;96.90;97347.63;5039294;28;20529;-58
2022/11/25 10:36:16;;;;;;;8.33;3.73;;;;;;;6.47;97.72;97346.13;5029633;28;20080;-58
2022/11/25 10:39:25;;;;;;;5.88;2.10;;;;;;;6.62;96.13;97352.97;5043455;28;20067;-59
2022/11/25 10:42:03;;;;;;;5.43;2.60;;;;;;;6.59;95.44;97358.81;5036980;28;20569;-58
2022/11/25 10:44:38;;;;;;;6.70;2.30;;;;;;;6.64;95.13;97362.47;5035726;28;20053;-58
2022/11/25 10:47:11;;;;;;;7.03;2.20;;;;;;;6.76;94.80;97364.41;5043266;28;20052;-59
2022/11/25 10:50:17;;;;;;;6.70;2.35;;;;;;;6.78;95.88;97373.03;5035788;28;20041;-57
2022/11/25 10:53:00;;;;;;;7.68;2.00;;;;;;;6.70;97.06;97376.88;5037803;28;20150;-59
2022/11/25 10:55:30;;;;;;;5.75;2.55;;;;;;;6.64;97.33;97378.59;5034339;28;20045;-58
2022/11/25 10:57:58;;;;;;;6.03;1.98;;;;;;;6.64;98.22;97384.00;5032049;28;20046;-57
2022/11/25 11:00:27;;;;;;;5.93;1.80;;;;;;;6.69;96.83;97383.31;5036798;28;20656;-59
2022/11/25 11:02:54;;;;;;;6.30;1.77;;;;;;;6.80;96.05;97389.81;5038097;28;20470;-58
2022/11/25 11:05:24;;;;;;;7.75;2.83;;;;;;;6.74;97.05;97388.84;5031659;28;20540;-59
2022/11/25 11:08:35;;;;;;;5.72;2.25;;;;;;;6.72;97.77;97392.81;5047967;28;20456;-59
2022/11/25 11:11:18;;;;;;;6.20;1.95;;;;;;;6.67;98.60;97400.75;5026410;28;20119;-60
2022/11/25 11:13:46;;;;;;;8.75;3.65;;;;;;;6.64;100.00;97400.13;5032787;28;20096;-59
2022/11/25 11:16:28;;;;;;;5.53;1.40;;;;;;;6.69;100.00;97404.00;5040289;28;20041;-59
2022/11/25 11:18:56;;;;;;;6.03;2.55;;;;;;;6.73;100.00;97410.59;5046887;28;20056;-58
2022/11/25 11:21:36;;;;;;;3.70;1.75;;;;;;;6.78;100.00;97408.03;5041963;28;20076;-56
2022/11/25 11:24:41;;;;;;;12.70;6.00;;;;;;;6.72;100.00;97407.09;5058417;28;20098;-59
2022/11/25 11:27:23;;;;;;;5.72;2.00;;;;;;;6.68;100.00;97411.28;5037423;28;20087;-60
2022/11/25 11:30:14;;;;;;;9.02;4.07;;;;;;;6.43;100.00;97417.56;5045063;28;20060;-60
2022/11/25 11:32:44;;;;;;;8.47;4.13;;;;;;;6.40;100.00;97409.94;5040020;28;20128;-59
2022/11/25 11:35:18;;;;;;;12.60;7.13;;;;;;;6.35;100.00;97429.41;5053612;28;20678;-57
2022/11/25 11:37:51;;;;;;;8.57;4.90;;;;;;;6.35;100.00;97424.03;5042641;28;20049;-57
2022/11/25 11:40:36;;;;;;;11.48;4.18;;;;;;;6.34;100.00;97419.72;5042260;28;20069;-55
2022/11/25 11:43:32;;;;;;;6.55;2.25;;;;;;;6.49;100.00;97418.53;5057605;28;20044;-56
2022/11/25 11:46:01;;;;;;;9.43;4.25;;;;;;;6.57;100.00;97415.56;5026286;28;20316;-59
2022/11/25 11:48:40;;;;;;;9.45;4.03;;;;;;;6.48;100.00;97415.03;5044110;28;20098;-58
2022/11/25 11:51:32;;;;;;;7.78;3.30;;;;;;;6.56;100.00;97418.47;5040704;28;20726;-55
2022/11/25 11:54:30;;;;;;;10.48;4.25;;;;;;;6.52;100.00;97414.56;5055130;28;20044;-57
2022/11/25 11:57:01;;;;;;;7.97;2.83;;;;;;;6.43;100.00;97425.63;5043034;28;20053;-58
2022/11/25 11:59:49;;;;;;;7.32;2.60;;;;;;;6.47;100.00;97424.13;5028129;28;20049;-57
2022/11/25 12:02:23;;;;;;;7.82;3.08;;;;;;;6.51;100.00;97429.88;5031567;28;20068;-56
2022/11/25 12:05:09;;;;;;;6.57;2.00;;;;;;;6.54;100.00;97434.81;5042614;28;20048;-58
2022/11/25 12:07:58;;;;;;;8.30;2.35;;;;;;;6.57;100.00;97444.31;5039593;28;20065;-54
2022/11/25 12:10:27;;;;;;;8.57;4.00;;;;;;;6.49;100.00;97438.16;5053408;28;20420;-61
2022/11/25 12:12:56;;;;;;;12.27;6.35;;;;;;;6.50;100.00;97433.63;5048457;28;20045;-58